createdAt,value
2018-10-19T00:00:37.917Z,11.26
2018-10-19T00:02:14.142Z,11.23
2018-10-19T00:03:50.467Z,11.29
2018-10-19T00:05:25.884Z,11.29
2018-10-19T00:07:03.172Z,11.25
2018-10-19T00:08:38.647Z,11.23
2018-10-19T00:10:14.931Z,11.22
2018-10-19T00:11:51.337Z,11.21
2018-10-19T00:13:28.291Z,11.20
2018-10-19T00:15:06.387Z,11.20
2018-10-19T00:16:41.481Z,11.17
2018-10-19T00:18:17.291Z,11.13
2018-10-19T00:19:52.323Z,11.13
2018-10-19T00:21:27.754Z,11.13
2018-10-19T00:23:03.853Z,11.11
2018-10-19T00:24:39.064Z,11.18
2018-10-19T00:26:14.439Z,11.17
2018-10-19T00:27:52.598Z,11.14
2018-10-19T00:29:28.518Z,11.16
2018-10-19T00:31:04.373Z,11.13
2018-10-19T00:32:39.762Z,11.08
2018-10-19T00:34:16.512Z,11.10
2018-10-19T00:35:51.824Z,11.10
2018-10-19T00:37:27.317Z,11.09
2018-10-19T00:39:03.555Z,11.13
2018-10-19T00:40:38.955Z,11.13
2018-10-19T00:42:15.521Z,11.07
2018-10-19T00:43:51.726Z,11.11
2018-10-19T00:45:32.188Z,11.10
2018-10-19T00:47:08.056Z,11.09
2018-10-19T00:48:43.371Z,11.13
2018-10-19T00:50:18.840Z,11.17
2018-10-19T00:51:54.276Z,11.14
2018-10-19T00:53:30.387Z,11.12
2018-10-19T00:55:05.497Z,11.14
2018-10-19T00:56:41.487Z,11.14
2018-10-19T00:58:18.042Z,11.10
2018-10-19T00:59:54.965Z,11.07
2018-10-19T01:01:30.685Z,11.07
2018-10-19T01:03:06.418Z,11.10
2018-10-19T01:04:42.974Z,11.12
2018-10-19T01:06:18.273Z,11.14
2018-10-19T01:07:53.863Z,11.19
2018-10-19T01:09:30.141Z,11.16
2018-10-19T01:11:06.439Z,11.17
2018-10-19T01:12:43.410Z,11.09
2018-10-19T01:14:20.452Z,11.08
2018-10-19T01:15:58.688Z,11.09
2018-10-19T01:17:34.268Z,11.10
2018-10-19T01:19:09.840Z,11.11
2018-10-19T01:20:47.519Z,11.12
2018-10-19T01:22:22.843Z,11.15
2018-10-19T01:23:59.195Z,11.13
2018-10-19T01:25:35.932Z,11.10
2018-10-19T01:27:12.128Z,11.10
2018-10-19T01:28:47.682Z,11.07
2018-10-19T01:30:23.713Z,11.09
2018-10-19T01:31:59.185Z,11.10
2018-10-19T01:33:34.966Z,11.06
2018-10-19T01:35:12.434Z,11.02
2018-10-19T01:36:47.971Z,11.04
2018-10-19T01:38:24.191Z,11.03
2018-10-19T01:40:00.919Z,11.02
2018-10-19T01:41:36.523Z,11.05
2018-10-19T01:43:12.591Z,11.02
2018-10-19T01:44:48.006Z,10.98
2018-10-19T01:46:23.260Z,10.89
2018-10-19T01:47:59.387Z,10.86
2018-10-19T01:49:34.806Z,10.78
2018-10-19T01:51:11.601Z,10.72
2018-10-19T01:52:46.700Z,10.67
2018-10-19T01:54:22.773Z,10.61
2018-10-19T01:56:00.001Z,10.61
2018-10-19T01:57:35.311Z,10.55
2018-10-19T01:59:11.096Z,10.51
2018-10-19T02:00:48.274Z,10.49
2018-10-19T02:02:23.668Z,10.43
2018-10-19T02:03:59.744Z,10.36
2018-10-19T02:05:35.135Z,10.37
2018-10-19T02:07:10.539Z,10.31
2018-10-19T02:08:45.806Z,10.20
2018-10-19T02:10:21.727Z,10.18
2018-10-19T02:11:58.876Z,10.11
2018-10-19T02:13:35.214Z,10.07
2018-10-19T02:15:10.476Z,9.98
2018-10-19T02:16:45.884Z,9.96
2018-10-19T02:18:21.239Z,9.87
2018-10-19T02:19:57.763Z,9.78
2018-10-19T02:21:34.502Z,9.71
2018-10-19T02:23:09.818Z,9.74
2018-10-19T02:24:45.293Z,9.67
2018-10-19T02:26:20.458Z,9.66
2018-10-19T02:27:56.115Z,9.66
2018-10-19T02:29:31.783Z,9.63
2018-10-19T02:31:07.230Z,9.56
2018-10-19T02:32:43.261Z,9.54
2018-10-19T02:34:19.777Z,9.50
2018-10-19T02:37:56.585Z,9.55
2018-10-19T02:39:31.567Z,9.54
2018-10-19T02:41:07.678Z,9.53
2018-10-19T02:42:46.107Z,9.56
2018-10-19T02:44:21.808Z,9.56
2018-10-19T02:45:58.127Z,9.50
2018-10-19T02:49:16.425Z,9.58
2018-10-19T02:50:52.524Z,9.60
2018-10-19T02:52:28.818Z,9.61
2018-10-19T02:54:04.039Z,9.66
2018-10-19T02:55:39.832Z,9.66
2018-10-19T02:57:15.169Z,9.66
2018-10-19T02:58:53.493Z,9.68
2018-10-19T03:00:29.397Z,9.63
2018-10-19T03:02:04.615Z,9.64
2018-10-19T03:03:40.605Z,9.62
2018-10-19T03:05:16.159Z,9.64
2018-10-19T03:06:53.368Z,9.60
2018-10-19T03:08:31.212Z,9.57
2018-10-19T03:10:10.227Z,9.57
2018-10-19T03:11:46.602Z,9.53
2018-10-19T03:13:21.979Z,9.49
2018-10-19T03:14:58.565Z,9.54
2018-10-19T03:16:35.090Z,9.47
2018-10-19T03:18:10.382Z,9.45
2018-10-19T03:19:47.647Z,9.42
2018-10-19T03:21:24.850Z,9.36
2018-10-19T03:23:02.825Z,9.39
2018-10-19T03:24:38.122Z,9.35
2018-10-19T03:26:14.071Z,9.30
2018-10-19T03:27:49.181Z,9.25
2018-10-19T03:29:24.529Z,9.15
2018-10-19T03:31:00.627Z,9.13
2018-10-19T03:32:36.510Z,9.10
2018-10-19T03:34:12.636Z,9.06
2018-10-19T03:35:51.744Z,8.99
2018-10-19T03:37:27.931Z,8.88
2018-10-19T03:39:03.412Z,8.81
2018-10-19T03:40:38.629Z,8.72
2018-10-19T03:42:16.267Z,8.69
2018-10-19T03:43:52.879Z,8.60
2018-10-19T03:45:31.813Z,8.52
2018-10-19T03:47:09.165Z,8.40
2018-10-19T03:48:45.909Z,8.31
2018-10-19T03:50:22.393Z,8.21
2018-10-19T03:51:58.768Z,8.12
2018-10-19T03:53:34.232Z,8.00
2018-10-19T03:55:12.331Z,8.00
2018-10-19T03:56:52.214Z,7.89
2018-10-19T03:58:30.239Z,7.97
2018-10-19T04:00:08.070Z,7.86
2018-10-19T04:01:45.504Z,7.80
2018-10-19T04:03:22.360Z,7.69
2018-10-19T04:04:59.663Z,7.65
2018-10-19T04:06:36.431Z,7.66
2018-10-19T04:08:12.895Z,7.58
2018-10-19T04:09:51.802Z,7.50
2018-10-19T04:11:31.354Z,7.50
2018-10-19T04:13:06.639Z,7.57
2018-10-19T04:14:44.216Z,7.58
2018-10-19T04:16:19.825Z,7.64
2018-10-19T04:17:55.034Z,7.69
2018-10-19T04:19:30.931Z,7.49
2018-10-19T04:21:06.042Z,7.37
2018-10-19T04:22:41.174Z,7.27
2018-10-19T04:24:17.241Z,7.19
2018-10-19T04:25:53.095Z,7.13
2018-10-19T04:27:30.768Z,7.08
2018-10-19T04:29:07.470Z,7.01
2018-10-19T04:30:44.920Z,6.92
2018-10-19T04:32:21.108Z,6.83
2018-10-19T04:33:57.457Z,6.83
2018-10-19T04:35:33.622Z,6.80
2018-10-19T04:37:10.403Z,6.82
2018-10-19T04:38:45.543Z,6.79
2018-10-19T04:40:22.675Z,6.80
2018-10-19T04:41:58.181Z,6.76
2018-10-19T04:43:33.751Z,6.68
2018-10-19T04:45:09.138Z,6.65
2018-10-19T04:46:44.376Z,6.60
2018-10-19T04:48:21.067Z,6.54
2018-10-19T04:49:56.212Z,6.53
2018-10-19T04:51:31.874Z,6.43
2018-10-19T04:53:08.601Z,6.35
2018-10-19T04:54:44.629Z,6.27
2018-10-19T04:56:20.077Z,6.21
2018-10-19T04:57:55.236Z,6.13
2018-10-19T04:59:30.748Z,6.22
2018-10-19T05:01:06.336Z,6.23
2018-10-19T05:02:42.734Z,6.30
2018-10-19T05:04:18.258Z,6.30
2018-10-19T05:05:53.625Z,6.20
2018-10-19T05:07:29.114Z,6.22
2018-10-19T05:09:07.683Z,6.27
2018-10-19T05:10:42.800Z,6.24
2018-10-19T05:12:18.604Z,6.35
2018-10-19T05:13:54.624Z,6.25
2018-10-19T05:15:31.441Z,6.18
2018-10-19T05:17:06.566Z,6.11
2018-10-19T05:18:42.415Z,6.03
2018-10-19T05:20:18.693Z,6.13
2018-10-19T05:21:54.414Z,6.08
2018-10-19T05:23:30.896Z,6.08
2018-10-19T05:25:07.316Z,6.01
2018-10-19T05:26:42.441Z,5.93
2018-10-19T05:28:17.846Z,5.85
2018-10-19T05:29:57.147Z,5.80
2018-10-19T05:31:35.894Z,5.81
2018-10-19T05:33:11.379Z,5.80
2018-10-19T05:34:46.350Z,5.81
2018-10-19T05:36:21.639Z,5.90
2018-10-19T05:37:56.868Z,5.85
2018-10-19T05:39:33.495Z,5.83
2018-10-19T05:41:09.127Z,5.82
2018-10-19T05:42:48.803Z,5.80
2018-10-19T05:44:26.975Z,5.75
2018-10-19T05:46:04.343Z,5.70
2018-10-19T05:47:40.745Z,5.73
2018-10-19T05:49:16.238Z,5.65
2018-10-19T05:50:51.551Z,5.78
2018-10-19T05:52:27.096Z,5.72
2018-10-19T05:54:02.279Z,5.76
2018-10-19T05:55:38.090Z,5.74
2018-10-19T05:57:13.350Z,5.64
2018-10-19T05:58:50.607Z,5.68
2018-10-19T06:00:27.614Z,5.74
2018-10-19T06:02:04.425Z,5.67
2018-10-19T06:03:41.424Z,5.78
2018-10-19T06:05:17.630Z,5.85
2018-10-19T06:06:55.542Z,5.87
2018-10-19T06:08:31.311Z,5.89
2018-10-19T06:10:08.311Z,5.99
2018-10-19T06:11:44.535Z,6.00
2018-10-19T06:13:20.644Z,6.05
2018-10-19T06:14:56.614Z,6.03
2018-10-19T06:16:33.212Z,5.97
2018-10-19T06:18:09.520Z,5.86
2018-10-19T06:19:45.868Z,5.80
2018-10-19T06:21:26.252Z,5.85
2018-10-19T06:23:03.294Z,5.88
2018-10-19T06:24:41.859Z,5.89
2018-10-19T06:26:17.032Z,5.96
2018-10-19T06:27:52.795Z,5.91
2018-10-19T06:29:30.383Z,6.00
2018-10-19T06:31:06.604Z,6.08
2018-10-19T06:32:43.306Z,6.19
2018-10-19T06:34:20.172Z,6.21
2018-10-19T06:35:57.796Z,6.28
2018-10-19T06:37:38.758Z,6.31
2018-10-19T06:39:15.407Z,6.26
2018-10-19T06:40:50.770Z,6.26
2018-10-19T06:42:26.304Z,6.26
2018-10-19T06:44:02.018Z,6.30
2018-10-19T06:45:41.335Z,6.35
2018-10-19T06:47:17.286Z,6.37
2018-10-19T06:48:53.437Z,6.44
2018-10-19T06:50:33.501Z,6.46
2018-10-19T06:52:09.495Z,6.56
2018-10-19T06:53:53.042Z,6.62
2018-10-19T06:55:31.319Z,6.78
2018-10-19T06:57:09.752Z,6.76
2018-10-19T06:58:45.947Z,6.80
2018-10-19T07:00:23.759Z,6.87
2018-10-19T07:02:00.018Z,6.92
2018-10-19T07:03:35.522Z,6.93
2018-10-19T07:05:12.030Z,6.92
2018-10-19T07:06:51.126Z,7.01
2018-10-19T07:08:26.591Z,7.10
2018-10-19T07:10:03.069Z,7.11
2018-10-19T07:11:44.715Z,7.14
2018-10-19T07:13:21.891Z,7.21
2018-10-19T07:14:58.908Z,7.27
2018-10-19T07:16:37.641Z,7.34
2018-10-19T07:18:14.632Z,7.40
2018-10-19T07:19:50.868Z,7.44
2018-10-19T07:21:27.397Z,7.52
2018-10-19T07:23:03.428Z,7.55
2018-10-19T07:24:38.940Z,7.61
2018-10-19T07:26:15.506Z,7.65
2018-10-19T07:27:52.308Z,7.75
2018-10-19T07:30:00.077Z,7.80
2018-10-19T07:31:38.097Z,7.90
2018-10-19T07:33:14.333Z,7.98
2018-10-19T07:34:53.743Z,8.08
2018-10-19T07:36:29.918Z,8.10
2018-10-19T07:38:08.010Z,8.14
2018-10-19T07:39:43.416Z,8.18
2018-10-19T07:41:19.662Z,8.23
2018-10-19T07:42:56.299Z,8.34
2018-10-19T07:44:32.388Z,8.44
2018-10-19T07:46:08.083Z,8.48
2018-10-19T07:47:44.921Z,8.59
2018-10-19T07:49:22.042Z,8.67
2018-10-19T07:50:58.235Z,8.78
2018-10-19T07:52:33.504Z,8.77
2018-10-19T07:54:09.323Z,8.83
2018-10-19T07:55:44.440Z,8.88
2018-10-19T07:57:21.476Z,8.98
2018-10-19T07:58:57.888Z,9.09
2018-10-19T08:00:33.365Z,9.19
2018-10-19T08:02:08.773Z,9.28
2018-10-19T08:03:48.859Z,9.43
2018-10-19T08:05:24.965Z,9.49
2018-10-19T08:07:05.380Z,9.57
2018-10-19T08:08:44.083Z,9.64
2018-10-19T08:10:19.542Z,9.72
2018-10-19T08:11:57.284Z,9.82
2018-10-19T08:13:35.013Z,9.90
2018-10-19T08:15:13.740Z,9.99
2018-10-19T08:16:50.600Z,10.08
2018-10-19T08:18:27.379Z,10.15
2018-10-19T08:20:02.759Z,10.21
2018-10-19T08:21:39.298Z,10.22
2018-10-19T08:23:18.693Z,10.33
2018-10-19T08:24:58.945Z,10.45
2018-10-19T08:26:35.821Z,10.54
2018-10-19T08:28:14.754Z,10.56
2018-10-19T08:29:55.003Z,10.64
2018-10-19T08:31:31.943Z,10.58
2018-10-19T08:33:07.662Z,10.65
2018-10-19T08:34:43.199Z,10.74
2018-10-19T08:36:19.836Z,10.93
2018-10-19T08:38:01.803Z,11.00
2018-10-19T08:39:37.333Z,11.11
2018-10-19T08:41:15.269Z,11.17
2018-10-19T08:42:52.180Z,11.39
2018-10-19T08:44:28.342Z,11.29
2018-10-19T08:46:09.268Z,11.38
2018-10-19T08:47:46.058Z,11.56
2018-10-19T08:49:23.935Z,11.61
2018-10-19T08:50:59.070Z,11.58
2018-10-19T08:52:34.853Z,11.68
2018-10-19T08:54:12.358Z,11.69
2018-10-19T08:55:47.929Z,11.82
2018-10-19T08:57:25.951Z,12.00
2018-10-19T08:59:01.425Z,11.99
2018-10-19T09:00:37.981Z,12.03
2018-10-19T09:02:13.630Z,12.22
2018-10-19T09:03:48.666Z,12.25
2018-10-19T09:05:24.224Z,12.33
2018-10-19T09:07:00.077Z,12.35
2018-10-19T09:08:35.660Z,12.36
2018-10-19T09:10:10.805Z,12.44
2018-10-19T09:11:46.506Z,12.50
2018-10-19T09:13:22.951Z,12.53
2018-10-19T09:14:59.449Z,12.64
2018-10-19T09:16:34.844Z,12.72
2018-10-19T09:18:10.238Z,12.66
2018-10-19T09:19:48.984Z,12.79
2018-10-19T09:21:31.459Z,12.98
2018-10-19T09:23:08.504Z,13.08
2018-10-19T09:24:46.690Z,12.97
2018-10-19T09:26:25.075Z,13.04
2018-10-19T09:28:00.845Z,13.08
2018-10-19T09:29:38.397Z,13.09
2018-10-19T09:31:18.425Z,13.09
2018-10-19T09:33:00.076Z,13.35
2018-10-19T09:34:37.286Z,13.53
2018-10-19T09:36:18.192Z,13.63
2018-10-19T09:37:55.723Z,13.68
2018-10-19T09:39:34.793Z,13.84
2018-10-19T09:41:14.121Z,13.75
2018-10-19T09:42:51.480Z,14.06
2018-10-19T09:44:28.469Z,14.10
2018-10-19T09:46:10.300Z,14.14
2018-10-19T09:47:46.092Z,14.06
2018-10-19T09:49:24.271Z,13.86
2018-10-19T09:51:01.713Z,14.01
2018-10-19T09:52:40.558Z,14.20
2018-10-19T09:54:20.469Z,14.16
2018-10-19T09:56:01.341Z,14.01
2018-10-19T09:57:39.457Z,14.32
2018-10-19T09:59:22.762Z,14.28
2018-10-19T10:01:03.743Z,14.38
2018-10-19T10:02:40.439Z,14.27
2018-10-19T10:04:17.884Z,14.33
2018-10-19T10:06:03.997Z,14.46
2018-10-19T10:07:41.744Z,14.53
2018-10-19T10:09:19.642Z,14.62
2018-10-19T10:10:55.285Z,14.68
2018-10-19T10:12:31.412Z,14.83
2018-10-19T10:14:09.952Z,15.01
2018-10-19T10:15:48.504Z,14.99
2018-10-19T10:17:26.897Z,14.79
2018-10-19T10:19:07.233Z,14.95
2018-10-19T10:20:47.676Z,15.04
2018-10-19T10:22:31.538Z,15.00
2018-10-19T10:24:08.907Z,15.06
2018-10-19T10:25:47.984Z,15.10
2018-10-19T10:29:17.340Z,15.08
2018-10-19T10:30:57.458Z,14.92
2018-10-19T10:32:36.328Z,15.04
2018-10-19T10:34:30.485Z,15.18
2018-10-19T10:36:14.413Z,15.44
2018-10-19T10:37:53.874Z,15.58
2018-10-19T10:39:34.575Z,15.54
2018-10-19T10:41:15.355Z,15.45
2018-10-19T10:42:54.306Z,15.31
2018-10-19T10:44:34.613Z,15.43
2018-10-19T10:46:14.459Z,15.36
2018-10-19T10:47:55.240Z,15.27
2018-10-19T10:49:35.352Z,15.24
2018-10-19T10:51:14.360Z,15.03
2018-10-19T10:52:53.414Z,14.64
2018-10-19T10:54:37.892Z,14.54
2018-10-19T10:56:18.672Z,14.76
2018-10-19T10:57:56.002Z,14.89
2018-10-19T10:59:31.372Z,14.77
2018-10-19T11:01:06.584Z,14.94
2018-10-19T11:02:42.610Z,14.91
2018-10-19T11:04:19.475Z,14.76
2018-10-19T11:05:56.724Z,14.77
2018-10-19T11:07:33.368Z,14.83
2018-10-19T11:09:11.298Z,14.92
2018-10-19T11:10:47.290Z,14.84
2018-10-19T11:12:24.745Z,14.85
2018-10-19T11:14:01.612Z,14.77
2018-10-19T11:15:38.680Z,14.77
2018-10-19T11:17:16.505Z,14.80
2018-10-19T11:18:56.957Z,14.67
2018-10-19T11:20:36.035Z,14.58
2018-10-19T11:22:12.263Z,14.60
2018-10-19T11:23:48.954Z,14.54
2018-10-19T11:25:28.683Z,14.57
2018-10-19T11:27:07.705Z,14.55
2018-10-19T11:28:44.594Z,14.62
2018-10-19T11:30:27.251Z,14.59
2018-10-19T11:32:06.436Z,14.44
2018-10-19T11:33:43.649Z,14.58
2018-10-19T11:35:25.557Z,14.66
2018-10-19T11:37:09.731Z,14.59
2018-10-19T11:38:47.534Z,14.80
2018-10-19T11:40:40.144Z,14.89
2018-10-19T11:42:21.345Z,14.90
2018-10-19T11:44:02.378Z,14.83
2018-10-19T11:45:45.112Z,14.95
2018-10-19T11:47:31.331Z,14.95
2018-10-19T11:49:09.950Z,15.14
2018-10-19T11:50:45.993Z,14.94
2018-10-19T11:52:35.030Z,15.07
2018-10-19T11:54:19.443Z,15.00
2018-10-19T11:55:57.379Z,14.99
2018-10-19T11:57:33.562Z,14.99
2018-10-19T11:59:13.455Z,14.94
2018-10-19T12:00:53.319Z,15.04
2018-10-19T12:02:35.261Z,14.89
2018-10-19T12:04:16.643Z,14.90
2018-10-19T12:05:56.062Z,14.93
2018-10-19T12:07:31.953Z,14.95
2018-10-19T12:09:10.658Z,15.04
2018-10-19T12:10:46.647Z,15.13
2018-10-19T12:12:23.356Z,15.06
2018-10-19T12:14:00.648Z,15.02
2018-10-19T12:15:42.050Z,15.07
2018-10-19T12:17:22.272Z,15.00
2018-10-19T12:19:00.110Z,14.94
2018-10-19T12:20:38.304Z,14.94
2018-10-19T12:22:16.503Z,14.91
2018-10-19T12:23:56.709Z,15.06
2018-10-19T12:25:35.623Z,14.93
2018-10-19T12:27:25.158Z,14.85
2018-10-19T12:29:04.104Z,15.05
2018-10-19T12:30:40.348Z,15.04
2018-10-19T12:32:17.781Z,15.20
2018-10-19T12:33:56.660Z,15.05
2018-10-19T12:35:33.250Z,14.99
2018-10-19T12:37:11.685Z,15.22
2018-10-19T12:38:47.592Z,15.24
2018-10-19T12:40:23.596Z,15.26
2018-10-19T12:42:00.883Z,15.24
2018-10-19T12:43:37.186Z,15.15
2018-10-19T12:45:23.871Z,15.11
2018-10-19T12:47:12.790Z,15.10
2018-10-19T12:48:57.314Z,14.96
2018-10-19T12:50:37.079Z,14.88
2018-10-19T12:52:13.691Z,14.79
2018-10-19T12:53:50.382Z,14.79
2018-10-19T12:55:27.083Z,14.71
2018-10-19T12:57:03.893Z,14.69
2018-10-19T12:58:39.218Z,14.57
2018-10-19T13:00:19.327Z,14.69
2018-10-19T13:01:57.324Z,14.80
2018-10-19T13:03:33.822Z,14.80
2018-10-19T13:05:11.045Z,14.71
2018-10-19T13:06:47.460Z,14.72
2018-10-19T13:08:28.255Z,14.71
2018-10-19T13:10:04.176Z,14.80
2018-10-19T13:11:39.920Z,14.82
2018-10-19T13:13:28.240Z,14.76
2018-10-19T13:15:16.133Z,14.74
2018-10-19T13:16:58.169Z,14.64
2018-10-19T13:18:45.537Z,14.70
2018-10-19T13:20:25.915Z,14.72
2018-10-19T13:22:07.288Z,14.77
2018-10-19T13:23:51.763Z,14.80
2018-10-19T13:25:35.567Z,14.85
2018-10-19T13:27:19.748Z,14.90
2018-10-19T13:29:02.567Z,14.79
2018-10-19T13:32:25.572Z,14.89
2018-10-19T13:34:13.256Z,14.96
2018-10-19T13:35:57.539Z,15.03
2018-10-19T13:37:39.030Z,14.98
2018-10-19T13:42:52.500Z,15.15
2018-10-19T13:44:34.757Z,15.20
2018-10-19T13:46:12.572Z,15.27
2018-10-19T13:47:50.223Z,15.33
2018-10-19T13:49:26.831Z,15.29
2018-10-19T13:51:05.837Z,15.32
2018-10-19T13:52:44.501Z,15.33
2018-10-19T13:54:25.561Z,15.33
2018-10-19T13:56:03.463Z,15.26
2018-10-19T13:57:41.020Z,15.28
2018-10-19T13:59:20.364Z,15.30
2018-10-19T14:00:56.520Z,15.26
2018-10-19T14:02:31.575Z,15.29
2018-10-19T14:04:07.845Z,15.28
2018-10-19T14:05:43.154Z,15.22
2018-10-19T14:07:19.220Z,15.17
2018-10-19T14:08:58.691Z,15.13
2018-10-19T14:10:36.070Z,15.13
2018-10-19T14:12:11.275Z,15.13
2018-10-19T14:13:48.285Z,15.15
2018-10-19T14:15:24.378Z,15.14
2018-10-19T14:17:01.048Z,15.16
2018-10-19T14:18:37.102Z,15.08
2018-10-19T14:20:13.441Z,14.96
2018-10-19T14:21:49.519Z,14.88
2018-10-19T14:23:30.367Z,14.90
2018-10-19T14:25:07.679Z,14.96
2018-10-19T14:26:43.569Z,14.93
2018-10-19T14:28:24.276Z,14.97
2018-10-19T14:30:01.384Z,14.97
2018-10-19T14:31:40.612Z,15.02
2018-10-19T14:33:19.612Z,15.08
2018-10-19T14:34:57.806Z,15.03
2018-10-19T14:36:34.215Z,15.04
2018-10-19T14:38:11.088Z,15.05
2018-10-19T14:39:54.814Z,15.02
2018-10-19T14:41:30.943Z,15.01
2018-10-19T14:43:07.285Z,15.02
2018-10-19T14:44:45.568Z,14.91
2018-10-19T14:46:23.573Z,14.92
2018-10-19T14:48:00.005Z,14.92
2018-10-19T14:49:40.111Z,14.84
2018-10-19T14:51:20.305Z,14.75
2018-10-19T14:52:58.728Z,14.82
2018-10-19T14:54:34.737Z,14.83
2018-10-19T14:56:11.536Z,14.78
2018-10-19T14:57:46.666Z,14.80
2018-10-19T14:59:27.190Z,14.68
2018-10-19T15:01:05.835Z,14.57
2018-10-19T15:02:45.248Z,14.59
2018-10-19T15:04:34.989Z,14.70
2018-10-19T15:06:17.049Z,14.75
2018-10-19T15:07:56.118Z,14.78
2018-10-19T15:09:34.135Z,14.80
2018-10-19T15:11:16.736Z,14.78
2018-10-19T15:12:54.624Z,14.84
2018-10-19T15:14:32.353Z,14.75
2018-10-19T15:16:08.859Z,14.74
2018-10-19T15:17:44.673Z,14.78
2018-10-19T15:19:26.905Z,14.68
2018-10-19T15:21:08.392Z,14.79
2018-10-19T15:22:45.221Z,14.79
2018-10-19T15:24:21.578Z,14.70
2018-10-19T15:25:58.874Z,14.84
2018-10-19T15:27:34.865Z,14.86
2018-10-19T15:29:15.638Z,14.90
2018-10-19T15:31:01.120Z,14.71
2018-10-19T15:32:44.708Z,14.63
2018-10-19T15:34:23.797Z,14.53
2018-10-19T15:36:00.510Z,14.55
2018-10-19T15:37:36.907Z,14.41
2018-10-19T15:39:20.393Z,14.45
2018-10-19T15:41:06.094Z,14.38
2018-10-19T15:42:41.724Z,14.34
2018-10-19T15:44:16.950Z,14.38
2018-10-19T15:45:54.102Z,14.29
2018-10-19T15:47:34.076Z,14.46
2018-10-19T15:49:11.494Z,14.40
2018-10-19T15:50:49.159Z,14.42
2018-10-19T15:52:27.771Z,14.43
2018-10-19T15:54:05.290Z,14.44
2018-10-19T15:55:41.644Z,14.29
2018-10-19T15:57:21.671Z,14.24
2018-10-19T15:59:34.922Z,14.27
2018-10-19T16:01:15.612Z,14.07
2018-10-19T16:02:53.826Z,14.02
2018-10-19T16:04:29.380Z,13.94
2018-10-19T16:06:07.335Z,13.94
2018-10-19T16:07:44.465Z,13.90
2018-10-19T16:09:20.726Z,13.85
2018-10-19T16:10:55.956Z,13.86
2018-10-19T16:12:31.366Z,13.84
2018-10-19T16:14:06.564Z,13.75
2018-10-19T16:15:43.454Z,13.71
2018-10-19T16:17:19.230Z,13.62
2018-10-19T16:18:59.326Z,13.60
2018-10-19T16:20:34.817Z,13.53
2018-10-19T16:22:10.057Z,13.53
2018-10-19T16:23:50.226Z,13.51
2018-10-19T16:25:27.549Z,13.49
2018-10-19T16:27:03.821Z,13.45
2018-10-19T16:28:40.730Z,13.43
2018-10-19T16:30:18.240Z,13.45
2018-10-19T16:31:56.001Z,13.38
2018-10-19T16:33:33.586Z,13.35
2018-10-19T16:35:09.685Z,13.34
2018-10-19T16:36:45.876Z,13.31
2018-10-19T16:38:22.568Z,13.24
2018-10-19T16:40:02.156Z,13.16
2018-10-19T16:41:40.173Z,13.10
2018-10-19T16:43:16.292Z,13.04
2018-10-19T16:44:56.752Z,13.02
2018-10-19T16:46:33.136Z,13.01
2018-10-19T16:48:09.162Z,12.97
2018-10-19T16:49:44.974Z,12.91
2018-10-19T16:51:27.159Z,12.87
2018-10-19T16:53:04.758Z,12.96
2018-10-19T16:54:44.811Z,12.88
2018-10-19T16:56:22.680Z,12.76
2018-10-19T16:57:58.286Z,12.70
2018-10-19T16:59:36.699Z,12.68
2018-10-19T17:01:15.297Z,12.63
2018-10-19T17:02:51.441Z,12.63
2018-10-19T17:04:28.129Z,12.60
2018-10-19T17:06:07.712Z,12.59
2018-10-19T17:07:47.626Z,12.50
2018-10-19T17:09:26.767Z,12.45
2018-10-19T17:11:04.219Z,12.45
2018-10-19T17:12:40.865Z,12.43
2018-10-19T17:14:19.262Z,12.42
2018-10-19T17:15:57.979Z,12.40
2018-10-19T17:17:36.628Z,12.39
2018-10-19T17:19:16.679Z,12.39
2018-10-19T17:20:58.546Z,12.37
2018-10-19T17:22:36.364Z,12.36
2018-10-19T17:24:12.541Z,12.32
2018-10-19T17:25:49.415Z,12.30
2018-10-19T17:27:30.366Z,12.26
2018-10-19T17:29:06.473Z,12.27
2018-10-19T17:30:52.750Z,12.27
2018-10-19T17:32:31.901Z,12.25
2018-10-19T17:34:07.921Z,12.26
2018-10-19T17:35:45.994Z,12.24
2018-10-19T17:37:23.397Z,12.18
2018-10-19T17:39:00.906Z,12.14
2018-10-19T17:40:39.275Z,12.18
2018-10-19T17:42:14.810Z,12.20
2018-10-19T17:43:52.737Z,12.20
2018-10-19T17:45:37.031Z,12.15
2018-10-19T17:47:14.488Z,12.15
2018-10-19T17:48:52.878Z,12.11
2018-10-19T17:50:29.249Z,12.12
2018-10-19T17:52:08.593Z,12.09
2018-10-19T17:53:46.849Z,12.09
2018-10-19T17:55:25.198Z,12.04
2018-10-19T17:57:02.373Z,12.06
2018-10-19T17:58:46.631Z,12.03
2018-10-19T18:00:32.915Z,11.98
2018-10-19T18:02:18.864Z,11.98
2018-10-19T18:03:58.480Z,11.99
2018-10-19T18:05:36.605Z,11.98
2018-10-19T18:07:12.841Z,11.99
2018-10-19T18:08:48.627Z,11.95
2018-10-19T18:10:25.500Z,11.94
2018-10-19T18:12:02.657Z,11.92
2018-10-19T18:15:41.323Z,11.85
2018-10-19T18:17:17.730Z,11.82
2018-10-19T18:18:57.756Z,11.80
2018-10-19T18:20:35.655Z,11.77
2018-10-19T18:22:11.878Z,11.76
2018-10-19T18:23:54.013Z,11.75
2018-10-19T18:25:31.849Z,11.75
2018-10-19T18:27:10.468Z,11.73
2018-10-19T18:28:53.967Z,11.75
2018-10-19T18:30:32.654Z,11.75
2018-10-19T18:32:11.760Z,11.74
2018-10-19T18:33:49.069Z,11.70
2018-10-19T18:35:33.503Z,11.70
2018-10-19T18:37:11.388Z,11.67
2018-10-19T18:38:48.877Z,11.64
2018-10-19T18:40:24.611Z,11.69
2018-10-19T18:42:00.622Z,11.70
2018-10-19T18:43:37.294Z,11.63
2018-10-19T18:45:16.967Z,11.60
2018-10-19T18:46:54.427Z,11.59
2018-10-19T18:48:34.271Z,11.59
2018-10-19T18:50:10.750Z,11.54
2018-10-19T18:51:47.355Z,11.51
2018-10-19T18:53:23.705Z,11.48
2018-10-19T18:55:01.234Z,11.43
2018-10-19T18:56:39.448Z,11.32
2018-10-19T18:58:15.766Z,11.23
2018-10-19T18:59:52.597Z,11.12
2018-10-19T19:01:31.072Z,11.03
2018-10-19T19:03:09.261Z,10.95
2018-10-19T19:04:47.195Z,10.84
2018-10-19T19:06:23.295Z,10.76
2018-10-19T19:08:00.029Z,10.66
2018-10-19T19:09:39.203Z,10.60
2018-10-19T19:11:15.444Z,10.57
2018-10-19T19:13:01.280Z,10.49
2018-10-19T19:14:39.847Z,10.44
2018-10-19T19:16:27.210Z,10.43
2018-10-19T19:18:07.841Z,10.43
2018-10-19T19:19:49.506Z,10.45
2018-10-19T19:21:26.873Z,10.46
2018-10-19T19:23:04.565Z,10.46
2018-10-19T19:24:47.467Z,10.47
2018-10-19T19:26:27.848Z,10.48
2018-10-19T19:28:05.515Z,10.48
2018-10-19T19:29:42.003Z,10.48
2018-10-19T19:31:17.307Z,10.55
2018-10-19T19:32:59.392Z,10.56
2018-10-19T19:34:35.792Z,10.58
2018-10-19T19:36:11.464Z,10.60
2018-10-19T19:37:48.394Z,10.55
2018-10-19T19:39:25.993Z,10.56
2018-10-19T19:41:10.505Z,10.54
2018-10-19T19:42:52.389Z,10.51
2018-10-19T19:44:32.810Z,10.49
2018-10-19T19:46:14.062Z,10.48
2018-10-19T19:47:55.956Z,10.49
2018-10-19T19:49:42.217Z,10.43
2018-10-19T19:51:26.923Z,10.36
2018-10-19T19:53:08.166Z,10.34
2018-10-19T19:54:52.563Z,10.28
2018-10-19T19:56:30.546Z,10.28
2018-10-19T19:58:21.781Z,10.27
2018-10-19T20:00:03.905Z,10.31
2018-10-19T20:01:40.918Z,10.32
2018-10-19T20:03:28.801Z,10.35
2018-10-19T20:05:06.975Z,10.35
2018-10-19T20:06:45.132Z,10.40
2018-10-19T20:08:25.920Z,10.36
2018-10-19T20:10:02.399Z,10.33
2018-10-19T20:11:40.093Z,10.35
2018-10-19T20:13:24.531Z,10.39
2018-10-19T20:15:06.021Z,10.41
2018-10-19T20:16:46.882Z,10.45
2018-10-19T20:18:32.989Z,10.45
2018-10-19T20:20:17.285Z,10.49
2018-10-19T20:21:57.138Z,10.49
2018-10-19T20:23:39.060Z,10.47
2018-10-19T20:25:14.441Z,10.43
2018-10-19T20:26:51.390Z,10.41
2018-10-19T20:28:28.622Z,10.38
2018-10-19T20:30:07.066Z,10.36
2018-10-19T20:31:45.335Z,10.43
2018-10-19T20:33:23.450Z,10.40
2018-10-19T20:35:00.440Z,10.37
2018-10-19T20:38:21.412Z,10.22
2018-10-19T20:40:06.743Z,10.09
2018-10-19T20:41:43.297Z,9.89
2018-10-19T20:43:23.689Z,9.78
2018-10-19T20:45:00.912Z,9.65
2018-10-19T20:46:42.056Z,9.56
2018-10-19T20:48:21.966Z,9.55
2018-10-19T20:49:59.982Z,9.46
2018-10-19T20:51:44.116Z,9.39
2018-10-19T20:53:26.280Z,9.27
2018-10-19T20:55:10.005Z,9.19
2018-10-19T20:56:47.804Z,9.06
2018-10-19T20:58:27.343Z,9.11
2018-10-19T21:00:09.971Z,9.02
2018-10-19T21:01:46.764Z,8.95
2018-10-19T21:03:31.313Z,8.87
2018-10-19T21:05:09.812Z,8.75
2018-10-19T21:06:51.203Z,8.81
2018-10-19T21:08:29.853Z,8.67
2018-10-19T21:10:09.221Z,8.54
2018-10-19T21:11:47.720Z,8.50
2018-10-19T21:13:29.262Z,8.49
2018-10-19T21:16:12.775Z,8.46
2018-10-19T21:17:51.305Z,8.61
2018-10-19T21:19:33.868Z,8.67
2018-10-19T21:21:11.703Z,8.73
2018-10-19T21:22:59.207Z,8.73
2018-10-19T21:24:38.994Z,8.66
2018-10-19T21:26:17.766Z,8.67
2018-10-19T21:27:57.626Z,8.60
2018-10-19T21:29:34.770Z,8.58
2018-10-19T21:31:17.023Z,8.46